Rochdale Village, New York
Current Conditions -  °F | °C
As of 6:51 PM on Wednesday 22 Oct 2014 (Local Time) from KJFK Reporting Station
Light Rain Light Rain  
Wind Chill: 53°   Ceiling: 1700
Heat Index: 53°   Visibility: 9mi
Dew Point: 49°   Wind: 17mph
Humidity: 86%   Direction: 360°N
Pressure: 29.8"   Gusts: 30mph
Location:  40.6565°N, 73.7829°W
Report Text: KJFK 222251Z 36015G26KT 9SM -RA BKN017 OVC023 12/09 A2980 RMK AO2 PK WND 36028/2233 SLP090 P0001 T01170094
Loading
Personal Weather Stations






























Interactive Weather Map
Tropical Storm Tracking
New forecast layout! Learn more

10-Day Weather Forecast

Advertisements
Track Severe Weather on mobile